DL8NDG-13 Weather Reports


Display with metric or nautical units.
time (UTC)temp
F
wind
direction
speed
MPH
gust
MPH
rain 1hr
in
rain 24hr
in
rain mn
in
humidity
%
barometer
mb
20240718054534 60 250 0.0 0.0 0.00 0.00 0.00 80 1021.3
20240718053026 59 249 0.0 0.0 0.00 0.00 0.00 78 1021.4
20240718051524 58 244 0.0 0.0 0.00 0.00 0.00 77 1021.4
20240718050023 58 271 0.0 0.0 0.00 0.00 0.00 77 1021.3
20240718044521 57 272 0.0 0.0 0.00 0.00 0.00 78 1021.4
20240718043020 57 260 0.0 0.0 0.00 0.00 0.00 78 1021.3
20240718041519 57 257 0.0 0.0 0.00 0.00 0.00 79 1021.3
20240718040019 57 252 0.0 0.0 0.00 0.00 0.00 80 1021.2
20240718034515 56 252 0.0 0.0 0.00 0.00 0.00 81 1021.2
20240718033015 57 250 0.0 0.0 0.00 0.00 0.00 81 1021.4
20240718031514 57 251 0.0 0.0 0.00 0.00 0.00 82 1021.2
20240718030025 57 276 0.0 0.0 0.00 0.00 0.00 82 1021.2
20240718024511 57 258 0.0 0.0 0.00 0.00 0.00 82 1021.1
20240718023010 57 252 0.0 0.0 0.00 0.00 0.00 82 1021.0
20240718021510 57 252 0.0 0.0 0.00 0.00 0.00 83 1021.0
20240718020007 57 250 0.0 0.0 0.00 0.00 0.00 83 1021.0
20240718014507 57 272 0.0 0.0 0.00 0.00 0.00 83 1021.1
20240718013008 57 277 0.0 0.0 0.00 0.00 0.00 84 1021.2
20240718011503 58 259 0.0 0.0 0.00 0.00 0.00 84 1021.3
20240718010001 58 258 0.0 0.0 0.00 0.00 0.00 84 1021.4
20240718004601 58 258 0.0 0.0 0.00 0.00 0.00 84 1021.4
20240718003100 59 254 0.0 0.0 0.00 0.00 0.00 84 1021.4
20240718001558 59 259 0.0 0.0 0.00 0.00 0.00 83 1021.4
20240718000052 60 262 0.0 0.0 0.00 0.00 0.00 83 1021.4
20240717234552 60 255 0.0 0.0 0.00 0.00 0.00 83 1021.5
20240717233058 60 250 0.0 0.0 0.00 0.00 0.00 83 1021.6
20240717231547 60 251 0.0 0.0 0.00 0.00 0.00 82 1021.6
20240717230046 61 253 0.0 0.0 0.00 0.00 0.00 82 1021.6
20240717224549 61 273 0.0 0.0 0.00 0.00 0.00 82 1021.6
20240717223042 62 260 0.0 0.0 0.00 0.00 0.00 81 1021.6
20240717221541 62 260 0.0 0.0 0.00 0.00 0.00 81 1021.6
20240717220038 63 259 0.0 0.0 0.00 0.00 0.00 80 1021.6
20240717214543 63 257 0.0 0.0 0.00 0.00 0.00 78 1021.6
20240717213038 64 257 0.0 0.0 0.00 0.00 0.00 75 1021.4
20240717211534 65 257 0.0 0.0 0.00 0.00 0.00 74 1021.2
20240717210031 66 288 0.0 0.0 0.00 0.00 0.00 72 1021.3
20240717204531 66 273 0.0 0.0 0.00 0.00 0.00 71 1021.1
20240717203030 67 257 0.0 0.0 0.00 0.00 0.00 70 1021.2
20240717201529 68 257 0.0 0.0 0.00 0.00 0.00 69 1021.1
20240717200028 69 258 0.0 0.0 0.00 0.00 0.00 66 1021.0
20240717194530 69 258 0.0 0.0 0.00 0.00 0.00 65 1021.0
20240717193026 70 274 0.0 0.0 0.00 0.00 0.00 63 1020.8
20240717191536 71 275 0.0 0.0 0.00 0.00 0.00 60 1020.7
20240717190040 72 261 0.0 0.0 0.00 0.00 0.00 58 1020.6
20240717184519 73 261 0.0 0.0 0.00 0.00 0.00 56 1020.4
20240717183023 73 258 0.0 0.0 0.00 0.00 0.00 56 1020.1
20240717181518 74 258 0.0 0.0 0.00 0.00 0.00 55 1020.3
20240717180024 75 292 0.0 0.0 0.00 0.00 0.00 52 1020.0
20240717174521 76 245 0.0 0.0 0.00 0.00 0.00 51 1019.9
20240717173014 76 197 2.0 9.0 0.00 0.00 0.00 49 1019.7
20240717171512 77 259 5.0 11.0 0.00 0.00 0.00 49 1019.6
20240717170012 76 187 0.0 0.0 0.00 0.00 0.00 50 1019.4
20240717164512 76 253 2.0 8.0 0.00 0.00 0.00 49 1019.5
20240717163011 77 254 3.0 8.0 0.00 0.00 0.00 49 1019.6
20240717161508 78 284 0.0 6.0 0.00 0.00 0.00 49 1019.6
20240717160009 77 161 0.0 0.0 0.00 0.00 0.00 47 1019.6
20240717154507 77 254 5.0 10.0 0.00 0.00 0.00 49 1019.6
20240717153008 77 242 1.0 8.0 0.00 0.00 0.00 50 1019.6
20240717151506 77 240 5.0 13.0 0.00 0.00 0.00 47 1019.6
20240717150006 77 215 5.0 10.0 0.00 0.00 0.00 47 1019.7
20240717144505 77 206 6.0 12.0 0.00 0.00 0.00 49 1019.6
20240717143004 76 232 2.0 9.0 0.00 0.00 0.00 50 1019.5
20240717141507 78 241 1.0 9.0 0.00 0.00 0.00 48 1019.5
20240717140002 78 242 0.0 6.0 0.00 0.00 0.00 46 1019.4
20240717134503 76 213 5.0 12.0 0.00 0.00 0.00 45 1019.5
20240717133101 78 207 3.0 11.0 0.00 0.00 0.00 45 1019.5
20240717133000 78 186 4.0 11.0 0.00 0.00 0.00 45 1019.4
20240717131602 77 199 5.0 10.0 0.00 0.00 0.00 46 1019.5
20240717130104 78 209 7.0 15.0 0.00 0.00 0.00 44 1019.5
20240717124559 78 188 5.0 12.0 0.00 0.00 0.00 45 1019.5
20240717123056 77 180 5.0 11.0 0.00 0.00 0.00 48 1019.4
20240717121554 77 231 5.0 12.0 0.00 0.00 0.00 49 1019.5
20240717120052 76 360 6.0 11.0 0.00 0.00 0.00 48 1019.5
20240717114551 75 211 7.0 12.0 0.00 0.00 0.00 51 1019.7
20240717113050 75 262 6.0 11.0 0.00 0.00 0.00 54 1019.7
20240717111554 76 360 3.0 12.0 0.00 0.00 0.00 52 1019.6
20240717110045 74 216 3.0 14.0 0.00 0.00 0.00 55 1019.7
20240717104542 74 232 4.0 12.0 0.00 0.00 0.00 53 1019.5
20240717103045 74 225 0.0 9.0 0.00 0.00 0.00 58 1019.6
20240717101542 74 213 5.0 11.0 0.00 0.00 0.00 55 1019.5
20240717100038 74 207 1.0 9.0 0.00 0.00 0.00 55 1019.4
20240717094536 73 219 4.0 9.0 0.00 0.00 0.00 59 1019.4
20240717093042 73 202 7.0 15.0 0.00 0.00 0.00 58 1019.5
20240717091538 71 254 0.0 9.0 0.00 0.00 0.00 61 1019.4
20240717090026 71 234 0.0 9.0 0.00 0.00 0.00 63 1019.4
20240717084524 71 252 3.0 11.0 0.00 0.00 0.00 64 1019.5
20240717083029 71 271 3.0 11.0 0.00 0.00 0.00 64 1019.4
20240717081517 70 229 6.0 12.0 0.00 0.00 0.00 64 1019.3
20240717080016 70 275 6.0 10.0 0.00 0.00 0.00 65 1019.3
20240717074514 69 242 5.0 13.0 0.00 0.01 0.00 66 1019.3
20240717073012 69 215 5.0 12.0 0.00 0.01 0.00 66 1019.5
20240717071509 68 227 4.0 12.0 0.00 0.01 0.00 67 1019.3
20240717070006 68 209 5.0 12.0 0.00 0.01 0.00 69 1019.3
20240717064502 66 213 3.0 9.0 0.00 0.01 0.00 71 1019.3
20240717063113 65 144 0.0 0.0 0.00 0.01 0.00 75 1019.3
20240717061618 64 229 0.0 0.0 0.00 0.01 0.00 78 1019.3
20240717060051 63 154 0.0 0.0 0.00 0.01 0.00 81 1019.3